sensor_id;sensor_type;location;lat;lon;timestamp;P1;durP1;ratioP1;P2;durP2;ratioP2
75589;SDS011;64169;47.240;11.312;2022-10-22T00:00:01;8.35;;;2.67;;
75589;SDS011;64169;47.240;11.312;2022-10-22T00:02:28;9.27;;;2.92;;
75589;SDS011;64169;47.240;11.312;2022-10-22T00:04:54;7.88;;;3.75;;
75589;SDS011;64169;47.240;11.312;2022-10-22T00:07:21;9.38;;;2.60;;
75589;SDS011;64169;47.240;11.312;2022-10-22T00:09:47;7.63;;;2.53;;
75589;SDS011;64169;47.240;11.312;2022-10-22T00:12:14;8.02;;;3.22;;
75589;SDS011;64169;47.240;11.312;2022-10-22T00:14:40;8.63;;;2.60;;
75589;SDS011;64169;47.240;11.312;2022-10-22T00:17:06;7.80;;;2.38;;
75589;SDS011;64169;47.240;11.312;2022-10-22T00:19:31;8.18;;;3.03;;
75589;SDS011;64169;47.240;11.312;2022-10-22T00:21:56;7.53;;;2.40;;
75589;SDS011;64169;47.240;11.312;2022-10-22T00:24:22;6.93;;;2.33;;
75589;SDS011;64169;47.240;11.312;2022-10-22T00:26:48;8.90;;;2.83;;
75589;SDS011;64169;47.240;11.312;2022-10-22T00:29:13;6.70;;;2.42;;
75589;SDS011;64169;47.240;11.312;2022-10-22T00:31:39;7.25;;;2.58;;
75589;SDS011;64169;47.240;11.312;2022-10-22T00:34:04;5.93;;;2.38;;
75589;SDS011;64169;47.240;11.312;2022-10-22T00:36:30;7.20;;;2.60;;
75589;SDS011;64169;47.240;11.312;2022-10-22T00:38:55;6.90;;;2.97;;
75589;SDS011;64169;47.240;11.312;2022-10-22T00:41:21;8.10;;;2.60;;
75589;SDS011;64169;47.240;11.312;2022-10-22T00:43:57;7.75;;;2.88;;
75589;SDS011;64169;47.240;11.312;2022-10-22T00:46:24;8.23;;;2.33;;
75589;SDS011;64169;47.240;11.312;2022-10-22T00:48:50;6.72;;;2.40;;
75589;SDS011;64169;47.240;11.312;2022-10-22T00:51:15;7.20;;;2.75;;
75589;SDS011;64169;47.240;11.312;2022-10-22T00:53:48;7.50;;;2.53;;
75589;SDS011;64169;47.240;11.312;2022-10-22T00:56:17;8.43;;;4.35;;
75589;SDS011;64169;47.240;11.312;2022-10-22T00:58:45;10.15;;;2.75;;
75589;SDS011;64169;47.240;11.312;2022-10-22T01:01:15;5.75;;;2.22;;
75589;SDS011;64169;47.240;11.312;2022-10-22T01:03:45;5.78;;;2.50;;
75589;SDS011;64169;47.240;11.312;2022-10-22T01:06:11;8.40;;;2.85;;
75589;SDS011;64169;47.240;11.312;2022-10-22T01:21:55;9.90;;;3.00;;
75589;SDS011;64169;47.240;11.312;2022-10-22T01:24:46;7.35;;;2.30;;
75589;SDS011;64169;47.240;11.312;2022-10-22T01:30:11;14.05;;;3.10;;
75589;SDS011;64169;47.240;11.312;2022-10-22T01:33:12;5.88;;;2.30;;
75589;SDS011;64169;47.240;11.312;2022-10-22T01:35:35;7.45;;;2.20;;
75589;SDS011;64169;47.240;11.312;2022-10-22T01:38:03;6.65;;;2.40;;
75589;SDS011;64169;47.240;11.312;2022-10-22T01:40:31;8.15;;;2.80;;
75589;SDS011;64169;47.240;11.312;2022-10-22T01:42:58;8.30;;;2.50;;
75589;SDS011;64169;47.240;11.312;2022-10-22T01:45:26;8.85;;;2.60;;
75589;SDS011;64169;47.240;11.312;2022-10-22T01:47:56;6.13;;;2.90;;
75589;SDS011;64169;47.240;11.312;2022-10-22T01:58:29;7.35;;;2.08;;
75589;SDS011;64169;47.240;11.312;2022-10-22T02:00:59;6.45;;;2.20;;
75589;SDS011;64169;47.240;11.312;2022-10-22T02:03:50;7.38;;;2.17;;
75589;SDS011;64169;47.240;11.312;2022-10-22T02:06:24;8.18;;;2.58;;
75589;SDS011;64169;47.240;11.312;2022-10-22T02:08:50;5.10;;;1.95;;
75589;SDS011;64169;47.240;11.312;2022-10-22T02:11:17;6.57;;;2.22;;
75589;SDS011;64169;47.240;11.312;2022-10-22T02:13:48;6.13;;;2.05;;
75589;SDS011;64169;47.240;11.312;2022-10-22T02:16:17;8.52;;;2.70;;
75589;SDS011;64169;47.240;11.312;2022-10-22T02:18:50;9.50;;;2.75;;
75589;SDS011;64169;47.240;11.312;2022-10-22T02:21:17;6.78;;;2.60;;
75589;SDS011;64169;47.240;11.312;2022-10-22T02:23:43;7.00;;;2.78;;
75589;SDS011;64169;47.240;11.312;2022-10-22T02:26:28;6.65;;;2.67;;
75589;SDS011;64169;47.240;11.312;2022-10-22T02:31:54;8.60;;;3.53;;
75589;SDS011;64169;47.240;11.312;2022-10-22T02:34:23;8.93;;;3.47;;
75589;SDS011;64169;47.240;11.312;2022-10-22T02:36:50;11.70;;;3.70;;
75589;SDS011;64169;47.240;11.312;2022-10-22T02:39:16;9.50;;;3.97;;
75589;SDS011;64169;47.240;11.312;2022-10-22T02:41:43;10.90;;;3.60;;
75589;SDS011;64169;47.240;11.312;2022-10-22T02:44:09;10.85;;;3.33;;
75589;SDS011;64169;47.240;11.312;2022-10-22T02:46:35;9.18;;;3.22;;
75589;SDS011;64169;47.240;11.312;2022-10-22T02:49:01;7.63;;;3.10;;
75589;SDS011;64169;47.240;11.312;2022-10-22T02:51:27;9.23;;;3.15;;
75589;SDS011;64169;47.240;11.312;2022-10-22T02:53:52;8.52;;;3.03;;
75589;SDS011;64169;47.240;11.312;2022-10-22T02:56:18;10.85;;;2.97;;
75589;SDS011;64169;47.240;11.312;2022-10-22T02:58:43;10.02;;;3.20;;
75589;SDS011;64169;47.240;11.312;2022-10-22T03:01:08;8.15;;;3.20;;
75589;SDS011;64169;47.240;11.312;2022-10-22T03:03:34;9.98;;;2.85;;
75589;SDS011;64169;47.240;11.312;2022-10-22T03:05:59;10.02;;;3.72;;
75589;SDS011;64169;47.240;11.312;2022-10-22T03:08:25;11.88;;;3.90;;
75589;SDS011;64169;47.240;11.312;2022-10-22T03:10:50;9.07;;;3.80;;
75589;SDS011;64169;47.240;11.312;2022-10-22T03:13:15;11.80;;;3.65;;
75589;SDS011;64169;47.240;11.312;2022-10-22T03:15:41;10.35;;;3.78;;
75589;SDS011;64169;47.240;11.312;2022-10-22T03:18:06;9.50;;;3.25;;
75589;SDS011;64169;47.240;11.312;2022-10-22T03:20:32;8.98;;;3.75;;
75589;SDS011;64169;47.240;11.312;2022-10-22T03:22:57;10.73;;;4.18;;
75589;SDS011;64169;47.240;11.312;2022-10-22T03:25:23;9.52;;;3.67;;
75589;SDS011;64169;47.240;11.312;2022-10-22T03:27:50;9.02;;;4.03;;
75589;SDS011;64169;47.240;11.312;2022-10-22T03:30:17;9.40;;;2.95;;
75589;SDS011;64169;47.240;11.312;2022-10-22T03:32:42;9.40;;;3.83;;
75589;SDS011;64169;47.240;11.312;2022-10-22T03:35:07;9.95;;;2.97;;
75589;SDS011;64169;47.240;11.312;2022-10-22T03:37:33;10.63;;;3.30;;
75589;SDS011;64169;47.240;11.312;2022-10-22T03:39:59;6.85;;;3.00;;
75589;SDS011;64169;47.240;11.312;2022-10-22T03:42:25;7.60;;;3.13;;
75589;SDS011;64169;47.240;11.312;2022-10-22T03:44:50;9.68;;;3.40;;
75589;SDS011;64169;47.240;11.312;2022-10-22T03:47:16;9.30;;;4.57;;
75589;SDS011;64169;47.240;11.312;2022-10-22T03:49:42;8.45;;;3.10;;
75589;SDS011;64169;47.240;11.312;2022-10-22T03:52:08;6.78;;;2.30;;
75589;SDS011;64169;47.240;11.312;2022-10-22T03:54:34;10.30;;;3.10;;
75589;SDS011;64169;47.240;11.312;2022-10-22T03:57:01;10.25;;;3.30;;
75589;SDS011;64169;47.240;11.312;2022-10-22T03:59:27;9.45;;;3.17;;
75589;SDS011;64169;47.240;11.312;2022-10-22T04:01:52;7.82;;;3.25;;
75589;SDS011;64169;47.240;11.312;2022-10-22T04:04:18;8.88;;;3.47;;
75589;SDS011;64169;47.240;11.312;2022-10-22T04:06:43;11.95;;;3.97;;
75589;SDS011;64169;47.240;11.312;2022-10-22T04:09:08;7.50;;;3.05;;
75589;SDS011;64169;47.240;11.312;2022-10-22T04:11:34;11.15;;;3.90;;
75589;SDS011;64169;47.240;11.312;2022-10-22T04:13:59;8.35;;;2.95;;
75589;SDS011;64169;47.240;11.312;2022-10-22T04:16:25;10.18;;;3.40;;
75589;SDS011;64169;47.240;11.312;2022-10-22T04:18:55;8.93;;;2.88;;
75589;SDS011;64169;47.240;11.312;2022-10-22T04:21:21;7.00;;;2.90;;
75589;SDS011;64169;47.240;11.312;2022-10-22T04:23:47;8.07;;;2.78;;
75589;SDS011;64169;47.240;11.312;2022-10-22T04:26:14;7.72;;;2.75;;
75589;SDS011;64169;47.240;11.312;2022-10-22T04:28:41;12.07;;;3.80;;
75589;SDS011;64169;47.240;11.312;2022-10-22T04:31:07;8.52;;;3.47;;
75589;SDS011;64169;47.240;11.312;2022-10-22T04:33:33;6.55;;;2.80;;
75589;SDS011;64169;47.240;11.312;2022-10-22T04:35:59;7.93;;;2.58;;
75589;SDS011;64169;47.240;11.312;2022-10-22T04:38:24;7.25;;;2.25;;
75589;SDS011;64169;47.240;11.312;2022-10-22T04:40:50;8.55;;;2.75;;
75589;SDS011;64169;47.240;11.312;2022-10-22T04:43:15;7.60;;;2.22;;
75589;SDS011;64169;47.240;11.312;2022-10-22T04:45:40;9.50;;;2.85;;
75589;SDS011;64169;47.240;11.312;2022-10-22T04:48:06;9.40;;;3.05;;
75589;SDS011;64169;47.240;11.312;2022-10-22T04:50:31;8.20;;;3.38;;
75589;SDS011;64169;47.240;11.312;2022-10-22T04:52:57;9.77;;;3.53;;
75589;SDS011;64169;47.240;11.312;2022-10-22T04:55:22;5.38;;;2.05;;
75589;SDS011;64169;47.240;11.312;2022-10-22T04:57:47;6.60;;;2.45;;
75589;SDS011;64169;47.240;11.312;2022-10-22T05:00:13;6.38;;;2.40;;
75589;SDS011;64169;47.240;11.312;2022-10-22T05:02:40;6.90;;;2.35;;
75589;SDS011;64169;47.240;11.312;2022-10-22T05:05:08;6.45;;;2.00;;
75589;SDS011;64169;47.240;11.312;2022-10-22T05:07:34;6.10;;;2.17;;
75589;SDS011;64169;47.240;11.312;2022-10-22T05:09:59;7.65;;;2.75;;
75589;SDS011;64169;47.240;11.312;2022-10-22T05:12:26;6.15;;;1.95;;
75589;SDS011;64169;47.240;11.312;2022-10-22T05:14:53;7.82;;;2.33;;
75589;SDS011;64169;47.240;11.312;2022-10-22T05:17:20;6.95;;;2.25;;
75589;SDS011;64169;47.240;11.312;2022-10-22T05:19:45;17.30;;;3.03;;
75589;SDS011;64169;47.240;11.312;2022-10-22T05:22:10;5.97;;;2.25;;
75589;SDS011;64169;47.240;11.312;2022-10-22T05:24:36;7.13;;;2.13;;
75589;SDS011;64169;47.240;11.312;2022-10-22T05:27:02;7.32;;;2.42;;
75589;SDS011;64169;47.240;11.312;2022-10-22T05:29:27;7.95;;;2.30;;
75589;SDS011;64169;47.240;11.312;2022-10-22T05:31:53;7.82;;;2.55;;
75589;SDS011;64169;47.240;11.312;2022-10-22T05:34:18;6.28;;;1.95;;
75589;SDS011;64169;47.240;11.312;2022-10-22T05:36:44;5.57;;;2.30;;
75589;SDS011;64169;47.240;11.312;2022-10-22T05:39:09;6.78;;;2.67;;
75589;SDS011;64169;47.240;11.312;2022-10-22T05:41:35;8.00;;;3.35;;
75589;SDS011;64169;47.240;11.312;2022-10-22T05:44:01;9.90;;;3.38;;
75589;SDS011;64169;47.240;11.312;2022-10-22T05:46:28;7.68;;;3.17;;
75589;SDS011;64169;47.240;11.312;2022-10-22T05:49:01;6.43;;;2.33;;
75589;SDS011;64169;47.240;11.312;2022-10-22T05:51:29;10.07;;;3.15;;
75589;SDS011;64169;47.240;11.312;2022-10-22T05:53:57;7.75;;;3.08;;
75589;SDS011;64169;47.240;11.312;2022-10-22T05:56:24;7.82;;;2.70;;
75589;SDS011;64169;47.240;11.312;2022-10-22T05:58:50;5.28;;;2.20;;
75589;SDS011;64169;47.240;11.312;2022-10-22T06:01:20;11.13;;;4.70;;
75589;SDS011;64169;47.240;11.312;2022-10-22T06:03:51;11.68;;;5.60;;
75589;SDS011;64169;47.240;11.312;2022-10-22T06:06:31;7.60;;;2.20;;
75589;SDS011;64169;47.240;11.312;2022-10-22T06:09:11;5.15;;;2.17;;
75589;SDS011;64169;47.240;11.312;2022-10-22T06:11:37;6.75;;;2.67;;
75589;SDS011;64169;47.240;11.312;2022-10-22T06:14:02;6.80;;;3.17;;
75589;SDS011;64169;47.240;11.312;2022-10-22T06:16:28;7.45;;;2.92;;
75589;SDS011;64169;47.240;11.312;2022-10-22T06:18:55;7.35;;;2.85;;
75589;SDS011;64169;47.240;11.312;2022-10-22T06:21:22;7.03;;;2.60;;
75589;SDS011;64169;47.240;11.312;2022-10-22T06:23:48;7.85;;;2.55;;
75589;SDS011;64169;47.240;11.312;2022-10-22T06:26:13;7.05;;;2.40;;
75589;SDS011;64169;47.240;11.312;2022-10-22T06:28:39;8.10;;;2.70;;
75589;SDS011;64169;47.240;11.312;2022-10-22T06:31:05;7.50;;;2.50;;
75589;SDS011;64169;47.240;11.312;2022-10-22T06:33:31;7.38;;;2.30;;
75589;SDS011;64169;47.240;11.312;2022-10-22T06:36:09;7.65;;;2.20;;
75589;SDS011;64169;47.240;11.312;2022-10-22T06:38:39;5.85;;;1.80;;
75589;SDS011;64169;47.240;11.312;2022-10-22T06:41:06;6.55;;;2.40;;
75589;SDS011;64169;47.240;11.312;2022-10-22T06:43:34;6.38;;;2.55;;
75589;SDS011;64169;47.240;11.312;2022-10-22T06:46:03;8.50;;;3.80;;
75589;SDS011;64169;47.240;11.312;2022-10-22T06:48:31;8.95;;;3.70;;
75589;SDS011;64169;47.240;11.312;2022-10-22T06:51:07;8.02;;;3.53;;
75589;SDS011;64169;47.240;11.312;2022-10-22T06:53:36;7.90;;;2.55;;
75589;SDS011;64169;47.240;11.312;2022-10-22T06:58:38;7.28;;;3.38;;
75589;SDS011;64169;47.240;11.312;2022-10-22T07:01:04;8.30;;;3.35;;
75589;SDS011;64169;47.240;11.312;2022-10-22T07:03:31;6.50;;;2.65;;
75589;SDS011;64169;47.240;11.312;2022-10-22T07:06:00;8.93;;;3.10;;
75589;SDS011;64169;47.240;11.312;2022-10-22T07:08:26;7.07;;;2.75;;
75589;SDS011;64169;47.240;11.312;2022-10-22T07:10:51;8.40;;;3.13;;
75589;SDS011;64169;47.240;11.312;2022-10-22T07:13:17;6.10;;;2.15;;
75589;SDS011;64169;47.240;11.312;2022-10-22T07:15:42;6.95;;;2.20;;
75589;SDS011;64169;47.240;11.312;2022-10-22T07:18:08;6.38;;;2.35;;
75589;SDS011;64169;47.240;11.312;2022-10-22T07:20:33;7.70;;;2.28;;
75589;SDS011;64169;47.240;11.312;2022-10-22T07:22:58;7.03;;;2.28;;
75589;SDS011;64169;47.240;11.312;2022-10-22T07:25:24;7.97;;;2.67;;
75589;SDS011;64169;47.240;11.312;2022-10-22T07:27:49;7.65;;;2.67;;
75589;SDS011;64169;47.240;11.312;2022-10-22T07:30:16;7.07;;;2.45;;
75589;SDS011;64169;47.240;11.312;2022-10-22T07:32:44;6.57;;;2.58;;
75589;SDS011;64169;47.240;11.312;2022-10-22T07:35:10;5.97;;;2.60;;
75589;SDS011;64169;47.240;11.312;2022-10-22T07:37:35;7.50;;;2.90;;
75589;SDS011;64169;47.240;11.312;2022-10-22T07:40:01;6.43;;;2.60;;
75589;SDS011;64169;47.240;11.312;2022-10-22T07:42:26;7.30;;;2.58;;
75589;SDS011;64169;47.240;11.312;2022-10-22T07:44:51;6.00;;;2.40;;
75589;SDS011;64169;47.240;11.312;2022-10-22T07:47:17;7.35;;;2.55;;
75589;SDS011;64169;47.240;11.312;2022-10-22T07:49:42;7.60;;;2.80;;
75589;SDS011;64169;47.240;11.312;2022-10-22T07:52:08;8.52;;;3.25;;
75589;SDS011;64169;47.240;11.312;2022-10-22T07:54:33;6.72;;;2.47;;
75589;SDS011;64169;47.240;11.312;2022-10-22T07:56:59;6.32;;;2.42;;
75589;SDS011;64169;47.240;11.312;2022-10-22T07:59:24;7.18;;;2.85;;
75589;SDS011;64169;47.240;11.312;2022-10-22T08:01:49;6.50;;;2.75;;
75589;SDS011;64169;47.240;11.312;2022-10-22T08:04:15;7.75;;;2.67;;
75589;SDS011;64169;47.240;11.312;2022-10-22T08:06:40;7.22;;;2.83;;
75589;SDS011;64169;47.240;11.312;2022-10-22T08:09:06;5.68;;;2.08;;
75589;SDS011;64169;47.240;11.312;2022-10-22T08:11:31;6.75;;;2.30;;
75589;SDS011;64169;47.240;11.312;2022-10-22T08:13:57;7.22;;;2.28;;
75589;SDS011;64169;47.240;11.312;2022-10-22T08:16:23;6.00;;;1.90;;
75589;SDS011;64169;47.240;11.312;2022-10-22T08:18:49;4.75;;;1.90;;
75589;SDS011;64169;47.240;11.312;2022-10-22T08:21:14;5.15;;;1.70;;
75589;SDS011;64169;47.240;11.312;2022-10-22T08:23:41;5.45;;;1.80;;
75589;SDS011;64169;47.240;11.312;2022-10-22T08:26:07;6.07;;;2.20;;
75589;SDS011;64169;47.240;11.312;2022-10-22T08:28:33;6.63;;;2.28;;
75589;SDS011;64169;47.240;11.312;2022-10-22T08:31:01;6.43;;;2.10;;
75589;SDS011;64169;47.240;11.312;2022-10-22T08:33:28;6.97;;;2.63;;
75589;SDS011;64169;47.240;11.312;2022-10-22T08:35:53;7.50;;;2.45;;
75589;SDS011;64169;47.240;11.312;2022-10-22T08:38:19;7.32;;;3.05;;
75589;SDS011;64169;47.240;11.312;2022-10-22T08:40:46;6.10;;;2.10;;
75589;SDS011;64169;47.240;11.312;2022-10-22T08:46:18;4.88;;;1.45;;
75589;SDS011;64169;47.240;11.312;2022-10-22T08:48:53;7.72;;;1.45;;
75589;SDS011;64169;47.240;11.312;2022-10-22T08:51:28;4.65;;;1.50;;
75589;SDS011;64169;47.240;11.312;2022-10-22T08:54:00;4.88;;;1.40;;
75589;SDS011;64169;47.240;11.312;2022-10-22T08:59:45;5.80;;;1.92;;
75589;SDS011;64169;47.240;11.312;2022-10-22T09:02:31;4.15;;;1.65;;
75589;SDS011;64169;47.240;11.312;2022-10-22T09:05:12;4.55;;;1.45;;
75589;SDS011;64169;47.240;11.312;2022-10-22T09:07:44;3.60;;;0.70;;
75589;SDS011;64169;47.240;11.312;2022-10-22T09:10:14;2.00;;;0.75;;
75589;SDS011;64169;47.240;11.312;2022-10-22T09:12:40;3.35;;;0.75;;
75589;SDS011;64169;47.240;11.312;2022-10-22T09:15:08;1.55;;;0.65;;
75589;SDS011;64169;47.240;11.312;2022-10-22T09:17:39;3.90;;;0.70;;
75589;SDS011;64169;47.240;11.312;2022-10-22T09:20:15;4.38;;;1.10;;
75589;SDS011;64169;47.240;11.312;2022-10-22T09:25:42;4.18;;;1.50;;
75589;SDS011;64169;47.240;11.312;2022-10-22T09:28:09;7.20;;;1.75;;
75589;SDS011;64169;47.240;11.312;2022-10-22T09:30:35;4.53;;;1.48;;
75589;SDS011;64169;47.240;11.312;2022-10-22T09:35:32;5.03;;;1.70;;
75589;SDS011;64169;47.240;11.312;2022-10-22T09:38:08;5.97;;;1.83;;
75589;SDS011;64169;47.240;11.312;2022-10-22T09:40:44;4.20;;;1.65;;
75589;SDS011;64169;47.240;11.312;2022-10-22T09:43:12;4.30;;;1.55;;
75589;SDS011;64169;47.240;11.312;2022-10-22T09:45:38;4.65;;;1.50;;
75589;SDS011;64169;47.240;11.312;2022-10-22T09:48:50;3.75;;;1.10;;
75589;SDS011;64169;47.240;11.312;2022-10-22T09:53:57;2.90;;;1.00;;
75589;SDS011;64169;47.240;11.312;2022-10-22T09:58:49;7.07;;;1.92;;
75589;SDS011;64169;47.240;11.312;2022-10-22T10:01:17;6.03;;;1.95;;
75589;SDS011;64169;47.240;11.312;2022-10-22T10:03:44;3.13;;;0.93;;
75589;SDS011;64169;47.240;11.312;2022-10-22T10:06:12;4.40;;;0.90;;
75589;SDS011;64169;47.240;11.312;2022-10-22T10:08:42;4.40;;;1.30;;
75589;SDS011;64169;47.240;11.312;2022-10-22T10:11:27;2.35;;;0.90;;
75589;SDS011;64169;47.240;11.312;2022-10-22T10:29:44;3.75;;;1.23;;
75589;SDS011;64169;47.240;11.312;2022-10-22T10:32:26;4.60;;;1.50;;
75589;SDS011;64169;47.240;11.312;2022-10-22T10:35:16;5.47;;;1.88;;
75589;SDS011;64169;47.240;11.312;2022-10-22T10:40:30;4.07;;;1.20;;
75589;SDS011;64169;47.240;11.312;2022-10-22T10:43:43;4.38;;;1.42;;
75589;SDS011;64169;47.240;11.312;2022-10-22T10:46:14;4.88;;;1.58;;
75589;SDS011;64169;47.240;11.312;2022-10-22T10:59:28;2.17;;;0.70;;
75589;SDS011;64169;47.240;11.312;2022-10-22T11:07:49;2.22;;;0.80;;
75589;SDS011;64169;47.240;11.312;2022-10-22T11:10:21;2.47;;;0.80;;
75589;SDS011;64169;47.240;11.312;2022-10-22T11:12:52;3.10;;;0.73;;
75589;SDS011;64169;47.240;11.312;2022-10-22T11:15:34;3.08;;;1.65;;
75589;SDS011;64169;47.240;11.312;2022-10-22T11:18:23;2.30;;;0.73;;
75589;SDS011;64169;47.240;11.312;2022-10-22T11:26:40;2.20;;;0.70;;
75589;SDS011;64169;47.240;11.312;2022-10-22T11:29:17;4.03;;;1.40;;
75589;SDS011;64169;47.240;11.312;2022-10-22T11:31:47;4.95;;;1.50;;
75589;SDS011;64169;47.240;11.312;2022-10-22T11:36:43;6.07;;;1.88;;
75589;SDS011;64169;47.240;11.312;2022-10-22T11:39:26;4.97;;;1.13;;
75589;SDS011;64169;47.240;11.312;2022-10-22T11:41:54;4.68;;;1.20;;
75589;SDS011;64169;47.240;11.312;2022-10-22T11:44:22;5.38;;;1.50;;
75589;SDS011;64169;47.240;11.312;2022-10-22T11:49:21;5.22;;;1.70;;
75589;SDS011;64169;47.240;11.312;2022-10-22T12:08:42;3.58;;;1.20;;
75589;SDS011;64169;47.240;11.312;2022-10-22T12:16:14;4.45;;;1.23;;
75589;SDS011;64169;47.240;11.312;2022-10-22T12:18:40;3.35;;;1.30;;
75589;SDS011;64169;47.240;11.312;2022-10-22T12:21:09;3.92;;;1.23;;
75589;SDS011;64169;47.240;11.312;2022-10-22T12:23:36;4.93;;;1.67;;
75589;SDS011;64169;47.240;11.312;2022-10-22T12:26:03;3.75;;;1.20;;
75589;SDS011;64169;47.240;11.312;2022-10-22T12:28:35;3.72;;;1.30;;
75589;SDS011;64169;47.240;11.312;2022-10-22T12:31:01;3.90;;;1.00;;
75589;SDS011;64169;47.240;11.312;2022-10-22T12:33:28;4.25;;;1.10;;
75589;SDS011;64169;47.240;11.312;2022-10-22T12:35:56;5.78;;;1.38;;
75589;SDS011;64169;47.240;11.312;2022-10-22T12:38:24;4.05;;;1.33;;
75589;SDS011;64169;47.240;11.312;2022-10-22T12:40:50;5.60;;;1.77;;
75589;SDS011;64169;47.240;11.312;2022-10-22T12:43:19;3.95;;;1.45;;
75589;SDS011;64169;47.240;11.312;2022-10-22T12:45:52;5.47;;;1.20;;
75589;SDS011;64169;47.240;11.312;2022-10-22T12:51:03;5.25;;;1.40;;
75589;SDS011;64169;47.240;11.312;2022-10-22T12:54:05;6.53;;;1.25;;
75589;SDS011;64169;47.240;11.312;2022-10-22T12:56:30;4.60;;;1.40;;
75589;SDS011;64169;47.240;11.312;2022-10-22T12:58:58;3.63;;;0.95;;
75589;SDS011;64169;47.240;11.312;2022-10-22T13:01:26;3.13;;;1.08;;
75589;SDS011;64169;47.240;11.312;2022-10-22T13:04:04;4.07;;;1.15;;
75589;SDS011;64169;47.240;11.312;2022-10-22T13:07:02;3.25;;;1.20;;
75589;SDS011;64169;47.240;11.312;2022-10-22T13:09:43;3.53;;;1.38;;
75589;SDS011;64169;47.240;11.312;2022-10-22T13:12:10;3.30;;;1.10;;
75589;SDS011;64169;47.240;11.312;2022-10-22T13:14:40;3.65;;;1.02;;
75589;SDS011;64169;47.240;11.312;2022-10-22T13:19:40;3.60;;;1.10;;
75589;SDS011;64169;47.240;11.312;2022-10-22T13:27:47;3.50;;;1.05;;
75589;SDS011;64169;47.240;11.312;2022-10-22T13:30:27;3.60;;;1.08;;
75589;SDS011;64169;47.240;11.312;2022-10-22T13:33:16;3.08;;;0.90;;
75589;SDS011;64169;47.240;11.312;2022-10-22T13:35:51;3.22;;;1.10;;
75589;SDS011;64169;47.240;11.312;2022-10-22T13:38:17;2.75;;;0.90;;
75589;SDS011;64169;47.240;11.312;2022-10-22T13:40:44;4.30;;;1.30;;
75589;SDS011;64169;47.240;11.312;2022-10-22T13:43:09;3.75;;;1.20;;
75589;SDS011;64169;47.240;11.312;2022-10-22T13:45:36;3.95;;;1.20;;
75589;SDS011;64169;47.240;11.312;2022-10-22T13:48:01;3.35;;;1.10;;
75589;SDS011;64169;47.240;11.312;2022-10-22T13:50:27;3.95;;;1.10;;
75589;SDS011;64169;47.240;11.312;2022-10-22T13:52:53;2.85;;;0.90;;
75589;SDS011;64169;47.240;11.312;2022-10-22T13:55:24;2.80;;;0.90;;
75589;SDS011;64169;47.240;11.312;2022-10-22T14:00:22;3.67;;;0.90;;
75589;SDS011;64169;47.240;11.312;2022-10-22T14:02:49;2.78;;;1.20;;
75589;SDS011;64169;47.240;11.312;2022-10-22T14:05:17;2.72;;;0.80;;
75589;SDS011;64169;47.240;11.312;2022-10-22T14:07:43;3.95;;;0.90;;
75589;SDS011;64169;47.240;11.312;2022-10-22T14:10:13;4.05;;;1.02;;
75589;SDS011;64169;47.240;11.312;2022-10-22T14:12:40;3.45;;;0.70;;
75589;SDS011;64169;47.240;11.312;2022-10-22T14:15:06;4.10;;;0.80;;
75589;SDS011;64169;47.240;11.312;2022-10-22T14:17:32;2.13;;;0.77;;
75589;SDS011;64169;47.240;11.312;2022-10-22T14:19:58;2.40;;;0.90;;
75589;SDS011;64169;47.240;11.312;2022-10-22T14:22:23;2.33;;;0.65;;
75589;SDS011;64169;47.240;11.312;2022-10-22T14:24:51;1.67;;;0.60;;
75589;SDS011;64169;47.240;11.312;2022-10-22T14:27:18;3.03;;;0.80;;
75589;SDS011;64169;47.240;11.312;2022-10-22T14:29:44;4.22;;;0.80;;
75589;SDS011;64169;47.240;11.312;2022-10-22T14:32:13;3.20;;;0.88;;
75589;SDS011;64169;47.240;11.312;2022-10-22T14:34:40;2.80;;;0.95;;
75589;SDS011;64169;47.240;11.312;2022-10-22T14:37:16;7.85;;;3.35;;
75589;SDS011;64169;47.240;11.312;2022-10-22T14:42:11;2.85;;;1.10;;
75589;SDS011;64169;47.240;11.312;2022-10-22T14:44:38;3.38;;;0.77;;
75589;SDS011;64169;47.240;11.312;2022-10-22T14:47:04;2.35;;;0.75;;
75589;SDS011;64169;47.240;11.312;2022-10-22T14:49:29;12.65;;;4.57;;
75589;SDS011;64169;47.240;11.312;2022-10-22T14:51:55;4.10;;;0.77;;
75589;SDS011;64169;47.240;11.312;2022-10-22T14:54:20;2.25;;;0.65;;
75589;SDS011;64169;47.240;11.312;2022-10-22T14:56:45;2.08;;;0.70;;
75589;SDS011;64169;47.240;11.312;2022-10-22T14:59:11;1.52;;;0.52;;
75589;SDS011;64169;47.240;11.312;2022-10-22T15:01:36;0.43;;;0.30;;
75589;SDS011;64169;47.240;11.312;2022-10-22T15:04:03;1.63;;;0.50;;
75589;SDS011;64169;47.240;11.312;2022-10-22T15:06:28;1.95;;;0.60;;
75589;SDS011;64169;47.240;11.312;2022-10-22T15:08:54;2.30;;;0.70;;
75589;SDS011;64169;47.240;11.312;2022-10-22T15:11:19;1.88;;;0.73;;
75589;SDS011;64169;47.240;11.312;2022-10-22T15:13:46;1.40;;;0.50;;
75589;SDS011;64169;47.240;11.312;2022-10-22T15:16:12;3.72;;;0.80;;
75589;SDS011;64169;47.240;11.312;2022-10-22T15:18:39;2.70;;;0.90;;
75589;SDS011;64169;47.240;11.312;2022-10-22T15:21:06;2.55;;;0.75;;
75589;SDS011;64169;47.240;11.312;2022-10-22T15:23:37;2.80;;;1.00;;
75589;SDS011;64169;47.240;11.312;2022-10-22T15:26:05;4.32;;;1.25;;
75589;SDS011;64169;47.240;11.312;2022-10-22T15:28:31;2.20;;;0.60;;
75589;SDS011;64169;47.240;11.312;2022-10-22T15:30:58;0.73;;;0.40;;
75589;SDS011;64169;47.240;11.312;2022-10-22T15:33:25;1.70;;;0.68;;
75589;SDS011;64169;47.240;11.312;2022-10-22T15:35:51;1.40;;;0.45;;
75589;SDS011;64169;47.240;11.312;2022-10-22T15:38:17;3.63;;;0.52;;
75589;SDS011;64169;47.240;11.312;2022-10-22T15:40:42;1.30;;;0.60;;
75589;SDS011;64169;47.240;11.312;2022-10-22T15:43:08;2.17;;;0.63;;
75589;SDS011;64169;47.240;11.312;2022-10-22T15:45:33;2.13;;;0.70;;
75589;SDS011;64169;47.240;11.312;2022-10-22T15:47:59;1.40;;;0.60;;
75589;SDS011;64169;47.240;11.312;2022-10-22T15:50:24;5.65;;;0.80;;
75589;SDS011;64169;47.240;11.312;2022-10-22T15:52:50;3.10;;;0.95;;
75589;SDS011;64169;47.240;11.312;2022-10-22T15:55:15;3.67;;;1.08;;
75589;SDS011;64169;47.240;11.312;2022-10-22T15:57:41;5.03;;;1.10;;
75589;SDS011;64169;47.240;11.312;2022-10-22T16:00:07;4.90;;;1.90;;
75589;SDS011;64169;47.240;11.312;2022-10-22T16:02:33;14.43;;;8.73;;
75589;SDS011;64169;47.240;11.312;2022-10-22T16:04:58;5.13;;;1.92;;
75589;SDS011;64169;47.240;11.312;2022-10-22T16:07:24;4.13;;;1.40;;
75589;SDS011;64169;47.240;11.312;2022-10-22T16:09:53;5.15;;;1.58;;
75589;SDS011;64169;47.240;11.312;2022-10-22T16:12:20;5.97;;;2.00;;
75589;SDS011;64169;47.240;11.312;2022-10-22T16:14:45;8.48;;;2.05;;
75589;SDS011;64169;47.240;11.312;2022-10-22T16:17:14;5.03;;;1.40;;
75589;SDS011;64169;47.240;11.312;2022-10-22T16:19:39;3.35;;;1.10;;
75589;SDS011;64169;47.240;11.312;2022-10-22T16:22:04;2.75;;;1.00;;
75589;SDS011;64169;47.240;11.312;2022-10-22T16:24:33;4.35;;;1.20;;
75589;SDS011;64169;47.240;11.312;2022-10-22T16:27:02;3.30;;;1.02;;
75589;SDS011;64169;47.240;11.312;2022-10-22T16:29:28;3.78;;;1.05;;
75589;SDS011;64169;47.240;11.312;2022-10-22T16:31:54;3.03;;;1.02;;
75589;SDS011;64169;47.240;11.312;2022-10-22T16:34:19;2.90;;;1.00;;
75589;SDS011;64169;47.240;11.312;2022-10-22T16:36:50;3.63;;;1.30;;
75589;SDS011;64169;47.240;11.312;2022-10-22T16:39:17;3.60;;;1.02;;
75589;SDS011;64169;47.240;11.312;2022-10-22T16:41:43;3.47;;;1.25;;
75589;SDS011;64169;47.240;11.312;2022-10-22T16:44:08;3.10;;;1.00;;
75589;SDS011;64169;47.240;11.312;2022-10-22T16:46:34;3.75;;;1.30;;
75589;SDS011;64169;47.240;11.312;2022-10-22T16:49:02;5.25;;;1.73;;